createdAt,value
2018-08-09T00:00:28.523Z,11.13
2018-08-09T00:02:56.811Z,12.23
2018-08-09T00:05:25.058Z,11.47
2018-08-09T00:07:53.320Z,12.70
2018-08-09T00:10:21.626Z,12.53
2018-08-09T00:12:49.885Z,12.90
2018-08-09T00:15:18.180Z,13.17
2018-08-09T00:17:46.436Z,13.10
2018-08-09T00:20:14.698Z,12.07
2018-08-09T00:22:43.071Z,11.83
2018-08-09T00:25:11.269Z,12.30
2018-08-09T00:27:39.523Z,13.50
2018-08-09T00:30:08.042Z,13.37
2018-08-09T00:32:36.418Z,13.70
2018-08-09T00:35:04.710Z,14.23
2018-08-09T00:37:32.999Z,13.07
2018-08-09T00:40:01.226Z,13.17
2018-08-09T00:42:29.471Z,13.80
2018-08-09T00:44:57.699Z,12.80
2018-08-09T00:47:25.986Z,13.07
2018-08-09T00:49:54.251Z,12.00
2018-08-09T00:52:22.536Z,12.70
2018-08-09T00:54:50.754Z,13.33
2018-08-09T00:57:18.991Z,13.50
2018-08-09T00:59:47.251Z,12.10
2018-08-09T01:02:15.445Z,12.53
2018-08-09T01:04:43.694Z,12.07
2018-08-09T01:07:11.886Z,11.37
2018-08-09T01:09:40.115Z,11.13
2018-08-09T01:12:08.331Z,11.23
2018-08-09T01:14:39.534Z,12.10
2018-08-09T01:17:07.796Z,11.80
2018-08-09T01:19:36.030Z,10.67
2018-08-09T01:22:04.256Z,11.57
2018-08-09T01:24:32.472Z,11.07
2018-08-09T01:27:00.757Z,10.63
2018-08-09T01:29:29.024Z,10.70
2018-08-09T01:31:57.268Z,11.20
2018-08-09T01:34:25.474Z,11.53
2018-08-09T01:36:53.734Z,10.90
2018-08-09T01:39:21.938Z,10.93
2018-08-09T01:42:01.346Z,10.80
2018-08-09T01:44:29.544Z,10.40
2018-08-09T01:46:57.799Z,11.43
2018-08-09T01:49:25.996Z,11.80
2018-08-09T01:51:54.245Z,11.43
2018-08-09T01:54:22.481Z,10.77
2018-08-09T01:56:50.785Z,11.43
2018-08-09T01:59:19.053Z,11.40
2018-08-09T02:01:47.262Z,12.77
2018-08-09T02:04:15.510Z,12.43
2018-08-09T02:06:43.724Z,10.97
2018-08-09T02:09:16.183Z,11.97
2018-08-09T02:11:44.437Z,12.30
2018-08-09T02:14:12.742Z,12.27
2018-08-09T02:16:40.952Z,13.47
2018-08-09T02:19:09.186Z,13.43
2018-08-09T02:21:37.455Z,12.53
2018-08-09T02:24:05.725Z,13.10
2018-08-09T02:26:33.952Z,13.07
2018-08-09T02:29:02.196Z,13.47
2018-08-09T02:31:30.456Z,12.87
2018-08-09T02:33:58.731Z,13.30
2018-08-09T02:36:26.974Z,13.47
2018-08-09T02:38:55.227Z,12.90
2018-08-09T02:41:23.455Z,13.70
2018-08-09T02:43:51.675Z,12.57
2018-08-09T02:46:19.992Z,14.37
2018-08-09T02:48:48.162Z,12.27
2018-08-09T02:51:16.537Z,13.43
2018-08-09T02:53:44.738Z,13.47
2018-08-09T02:56:13.015Z,13.40
2018-08-09T02:58:41.202Z,13.20
2018-08-09T03:01:09.475Z,13.90
2018-08-09T03:03:37.754Z,11.90
2018-08-09T03:06:06.051Z,13.20
2018-08-09T03:08:34.327Z,14.53
2018-08-09T03:11:02.584Z,12.50
2018-08-09T03:13:30.782Z,13.27
2018-08-09T03:15:59.031Z,12.90
2018-08-09T03:18:27.303Z,13.57
2018-08-09T03:20:55.627Z,12.43
2018-08-09T03:23:23.851Z,12.40
2018-08-09T03:25:52.098Z,12.63
2018-08-09T03:28:20.376Z,11.70
2018-08-09T03:30:48.588Z,16.30
2018-08-09T03:33:16.870Z,25.30
2018-08-09T03:35:45.146Z,11.90
2018-08-09T03:38:13.435Z,13.37
2018-08-09T03:40:41.784Z,13.57
2018-08-09T03:43:09.974Z,11.53
2018-08-09T03:45:38.268Z,12.20
2018-08-09T03:48:06.558Z,12.10
2018-08-09T03:50:34.802Z,12.23
2018-08-09T03:53:03.050Z,11.90
2018-08-09T03:55:31.346Z,11.67
2018-08-09T03:57:59.543Z,11.77
2018-08-09T04:00:27.779Z,12.17
2018-08-09T04:02:56.015Z,11.10
2018-08-09T04:05:24.274Z,12.00
2018-08-09T04:07:52.545Z,11.53
2018-08-09T04:10:20.774Z,11.40
2018-08-09T04:12:49.093Z,11.80
2018-08-09T04:15:17.402Z,11.00
2018-08-09T04:17:45.695Z,11.97
2018-08-09T04:20:13.963Z,10.33
2018-08-09T04:22:42.511Z,11.33
2018-08-09T04:25:10.841Z,11.57
2018-08-09T04:27:39.396Z,10.77
2018-08-09T04:30:07.748Z,9.33
2018-08-09T04:32:35.993Z,10.23
2018-08-09T04:35:04.469Z,10.13
2018-08-09T04:37:32.695Z,9.23
2018-08-09T04:40:01.062Z,9.70
2018-08-09T04:42:29.329Z,9.27
2018-08-09T04:44:57.638Z,9.40
2018-08-09T04:47:25.945Z,8.33
2018-08-09T04:49:54.203Z,8.73
2018-08-09T04:52:22.478Z,9.40
2018-08-09T04:54:50.764Z,8.80
2018-08-09T04:57:19.054Z,8.90
2018-08-09T04:59:47.343Z,11.07
2018-08-09T05:02:15.597Z,8.97
2018-08-09T05:04:43.862Z,9.00
2018-08-09T05:07:18.471Z,8.67
2018-08-09T05:09:46.754Z,9.13
2018-08-09T05:12:15.069Z,9.00
2018-08-09T05:14:43.302Z,9.27
2018-08-09T05:17:11.593Z,8.70
2018-08-09T05:19:39.798Z,9.17
2018-08-09T05:22:08.098Z,9.53
2018-08-09T05:24:37.341Z,8.33
2018-08-09T05:27:05.566Z,9.03
2018-08-09T05:29:33.797Z,8.77
2018-08-09T05:32:01.994Z,8.97
2018-08-09T05:34:36.825Z,8.77
2018-08-09T05:37:05.206Z,9.10
2018-08-09T05:39:33.725Z,9.27
2018-08-09T05:42:01.986Z,9.23
2018-08-09T05:44:30.338Z,9.27
2018-08-09T05:46:58.581Z,8.53
2018-08-09T05:49:26.794Z,8.30
2018-08-09T05:51:55.060Z,7.87
2018-08-09T05:54:23.258Z,8.50
2018-08-09T05:56:51.641Z,8.30
2018-08-09T05:59:19.883Z,8.03
2018-08-09T06:01:48.167Z,7.47
2018-08-09T06:04:16.417Z,7.93
2018-08-09T06:06:44.651Z,7.80
2018-08-09T06:09:13.485Z,7.77
2018-08-09T06:11:42.046Z,8.30
2018-08-09T06:14:10.727Z,7.50
2018-08-09T06:16:39.245Z,6.83
2018-08-09T06:19:07.880Z,6.30
2018-08-09T06:21:36.103Z,6.33
2018-08-09T06:24:04.387Z,6.43
2018-08-09T06:26:32.667Z,5.40
2018-08-09T06:29:00.820Z,5.80
2018-08-09T06:31:28.997Z,6.40
2018-08-09T06:33:57.286Z,6.20
2018-08-09T06:36:26.069Z,6.60
2018-08-09T06:38:54.321Z,6.33
2018-08-09T06:41:22.647Z,5.77
2018-08-09T06:43:50.886Z,6.13
2018-08-09T06:46:19.140Z,6.70
2018-08-09T06:48:47.454Z,5.60
2018-08-09T06:51:15.776Z,5.60
2018-08-09T06:53:44.026Z,5.97
2018-08-09T06:56:12.315Z,6.73
2018-08-09T06:58:40.607Z,7.33
2018-08-09T07:01:08.838Z,6.43
2018-08-09T07:03:37.132Z,6.50
2018-08-09T07:06:05.411Z,6.80
2018-08-09T07:08:33.822Z,7.07
2018-08-09T07:11:02.116Z,6.10
2018-08-09T07:13:30.304Z,6.60
2018-08-09T07:15:58.514Z,6.47
2018-08-09T07:18:26.784Z,6.80
2018-08-09T07:20:55.068Z,7.10
2018-08-09T07:23:23.333Z,6.10
2018-08-09T07:25:51.662Z,6.07
2018-08-09T07:28:19.899Z,6.60
2018-08-09T07:30:48.239Z,6.90
2018-08-09T07:33:16.514Z,6.13
2018-08-09T07:35:44.792Z,6.30
2018-08-09T07:38:13.107Z,7.37
2018-08-09T07:40:41.302Z,6.40
2018-08-09T07:43:09.546Z,7.20
2018-08-09T07:45:37.802Z,6.67
2018-08-09T07:48:06.045Z,6.87
2018-08-09T07:50:34.312Z,6.23
2018-08-09T07:53:02.571Z,7.00
2018-08-09T07:55:30.817Z,6.80
2018-08-09T07:57:59.105Z,6.93
2018-08-09T08:00:27.600Z,6.97
2018-08-09T08:02:55.792Z,7.03
2018-08-09T08:05:24.095Z,6.30
2018-08-09T08:07:52.359Z,6.17
2018-08-09T08:10:20.575Z,6.40
2018-08-09T08:12:48.818Z,6.53
2018-08-09T08:15:17.094Z,5.47
2018-08-09T08:17:45.351Z,6.27
2018-08-09T08:20:13.690Z,6.90
2018-08-09T08:22:42.114Z,5.90
2018-08-09T08:25:10.354Z,6.17
2018-08-09T08:27:38.614Z,7.07
2018-08-09T08:30:09.495Z,6.30
2018-08-09T08:32:37.998Z,5.80
2018-08-09T08:35:06.515Z,5.60
2018-08-09T08:37:35.123Z,6.20
2018-08-09T08:40:03.383Z,6.43
2018-08-09T08:42:31.595Z,6.20
2018-08-09T08:44:59.876Z,6.27
2018-08-09T08:47:28.604Z,6.60
2018-08-09T08:49:56.778Z,5.90
2018-08-09T08:52:25.043Z,6.73
2018-08-09T08:54:53.275Z,5.77
2018-08-09T08:57:21.559Z,5.50
2018-08-09T08:59:49.931Z,6.50
2018-08-09T09:02:18.290Z,5.53
2018-08-09T09:04:46.490Z,5.50
2018-08-09T09:07:14.729Z,5.50
2018-08-09T09:09:43.003Z,5.87
2018-08-09T09:12:11.264Z,5.77
2018-08-09T09:14:39.482Z,5.40
2018-08-09T09:17:07.716Z,4.90
2018-08-09T09:19:35.990Z,5.23
2018-08-09T09:22:04.219Z,4.23
2018-08-09T09:24:32.496Z,4.90
2018-08-09T09:27:00.780Z,3.93
2018-08-09T09:29:29.038Z,4.00
2018-08-09T09:31:57.288Z,4.53
2018-08-09T09:34:25.542Z,4.23
2018-08-09T09:36:53.872Z,4.00
2018-08-09T09:39:22.146Z,4.03
2018-08-09T09:41:50.500Z,4.87
2018-08-09T09:44:18.731Z,3.97
2018-08-09T09:46:47.020Z,4.20
2018-08-09T09:49:15.321Z,4.27
2018-08-09T09:51:43.534Z,4.33
2018-08-09T09:54:11.823Z,4.30
2018-08-09T09:56:40.130Z,4.57
2018-08-09T09:59:08.430Z,4.67
2018-08-09T10:01:37.066Z,4.70
2018-08-09T10:04:06.134Z,4.27
2018-08-09T10:06:35.034Z,4.50
2018-08-09T10:09:04.847Z,4.70
2018-08-09T10:11:33.205Z,3.90
2018-08-09T10:14:01.438Z,4.07
2018-08-09T10:16:29.637Z,3.80
2018-08-09T10:18:57.890Z,4.67
2018-08-09T10:21:26.249Z,4.73
2018-08-09T10:23:55.015Z,4.20
2018-08-09T10:26:23.239Z,4.70
2018-08-09T10:28:52.192Z,4.97
2018-08-09T10:31:20.395Z,5.00
2018-08-09T10:33:48.633Z,5.87
2018-08-09T10:36:17.816Z,5.20
2018-08-09T10:38:46.054Z,4.77
2018-08-09T10:41:14.582Z,4.77
2018-08-09T10:43:42.830Z,4.70
2018-08-09T10:46:11.043Z,4.77
2018-08-09T10:48:39.255Z,4.90
2018-08-09T10:51:07.527Z,5.00
2018-08-09T10:53:35.771Z,4.47
2018-08-09T10:56:04.038Z,6.10
2018-08-09T10:58:32.265Z,4.80
2018-08-09T11:01:00.535Z,4.77
2018-08-09T11:03:28.771Z,4.83
2018-08-09T11:05:56.974Z,4.77
2018-08-09T11:08:25.223Z,5.07
2018-08-09T11:10:53.487Z,5.10
2018-08-09T11:13:21.785Z,4.50
2018-08-09T11:15:49.974Z,4.70
2018-08-09T11:18:18.226Z,5.10
2018-08-09T11:20:46.453Z,5.07
2018-08-09T11:23:14.680Z,4.63
2018-08-09T11:25:42.974Z,4.90
2018-08-09T11:28:17.571Z,4.80
2018-08-09T11:30:45.870Z,4.83
2018-08-09T11:33:14.092Z,5.80
2018-08-09T11:35:42.325Z,5.63
2018-08-09T11:38:10.659Z,4.80
2018-08-09T11:40:38.962Z,5.47
2018-08-09T11:43:07.253Z,5.30
2018-08-09T11:45:35.803Z,5.20
2018-08-09T11:48:06.885Z,5.63
2018-08-09T11:50:35.178Z,5.30
2018-08-09T11:53:03.455Z,6.67
2018-08-09T11:55:32.015Z,5.57
2018-08-09T11:58:00.247Z,5.63
2018-08-09T12:00:28.498Z,5.70
2018-08-09T12:02:56.928Z,7.93
2018-08-09T12:05:25.148Z,5.10
2018-08-09T12:07:53.471Z,5.50
2018-08-09T12:10:22.090Z,6.73
2018-08-09T12:12:50.353Z,5.70
2018-08-09T12:15:18.615Z,5.50
2018-08-09T12:17:53.343Z,6.00
2018-08-09T12:20:21.546Z,5.53
2018-08-09T12:22:49.800Z,5.20
2018-08-09T12:25:18.351Z,6.40
2018-08-09T12:27:46.566Z,5.90
2018-08-09T12:30:15.974Z,6.07
2018-08-09T12:32:44.735Z,5.30
2018-08-09T12:35:13.355Z,5.80
2018-08-09T12:37:42.657Z,5.20
2018-08-09T12:40:11.727Z,4.97
2018-08-09T12:42:40.430Z,6.37
2018-08-09T12:45:10.447Z,4.90
2018-08-09T12:47:39.230Z,4.83
2018-08-09T12:50:10.502Z,5.10
2018-08-09T12:52:39.320Z,4.93
2018-08-09T12:55:07.908Z,5.23
2018-08-09T12:57:36.238Z,5.20
2018-08-09T13:00:06.165Z,5.43
2018-08-09T13:02:34.373Z,5.60
2018-08-09T13:05:03.038Z,5.87
2018-08-09T13:07:31.497Z,5.63
2018-08-09T13:09:59.811Z,6.83
2018-08-09T13:12:28.119Z,7.00
2018-08-09T13:14:56.427Z,5.77
2018-08-09T13:17:24.918Z,6.20
2018-08-09T13:19:53.591Z,5.50
2018-08-09T13:22:21.954Z,5.93
2018-08-09T13:24:50.227Z,5.20
2018-08-09T13:27:18.527Z,5.33
2018-08-09T13:29:46.789Z,5.87
2018-08-09T13:32:15.115Z,6.87
2018-08-09T13:34:43.398Z,5.57
2018-08-09T13:37:11.669Z,5.37
2018-08-09T13:39:39.884Z,5.67
2018-08-09T13:42:08.143Z,6.20
2018-08-09T13:44:36.394Z,5.47
2018-08-09T13:47:04.634Z,5.70
2018-08-09T13:49:32.940Z,5.43
2018-08-09T13:52:01.163Z,4.70
2018-08-09T13:54:29.397Z,5.17
2018-08-09T13:56:57.742Z,5.03
2018-08-09T13:59:25.950Z,5.77
2018-08-09T14:01:54.148Z,5.50
2018-08-09T14:04:22.494Z,4.93
2018-08-09T14:06:50.879Z,5.47
2018-08-09T14:09:19.103Z,5.47
2018-08-09T14:11:47.438Z,5.30
2018-08-09T14:14:15.700Z,5.37
2018-08-09T14:16:43.929Z,5.40
2018-08-09T14:19:13.350Z,5.97
2018-08-09T14:21:41.592Z,5.00
2018-08-09T14:24:10.208Z,4.97
2018-08-09T14:26:38.527Z,4.93
2018-08-09T14:29:07.437Z,5.40
2018-08-09T14:31:35.831Z,4.70
2018-08-09T14:34:04.226Z,5.60
2018-08-09T14:36:32.494Z,5.70
2018-08-09T14:39:00.781Z,6.50
2018-08-09T14:41:29.037Z,5.20
2018-08-09T14:43:57.314Z,4.83
2018-08-09T14:46:25.655Z,4.93
2018-08-09T14:48:53.950Z,5.50
2018-08-09T14:51:22.142Z,5.43
2018-08-09T14:53:50.400Z,4.83
2018-08-09T14:56:18.706Z,5.33
2018-08-09T14:58:47.072Z,5.20
2018-08-09T15:01:15.349Z,5.40
2018-08-09T15:03:43.553Z,5.10
2018-08-09T15:06:11.854Z,5.30
2018-08-09T15:08:40.493Z,4.90
2018-08-09T15:11:08.721Z,5.50
2018-08-09T15:13:37.753Z,5.70
2018-08-09T15:16:06.199Z,5.70
2018-08-09T15:18:34.452Z,5.50
2018-08-09T15:21:02.743Z,5.33
2018-08-09T15:23:31.044Z,5.60
2018-08-09T15:25:59.457Z,7.00
2018-08-09T15:28:27.742Z,5.20
2018-08-09T15:30:56.256Z,5.50
2018-08-09T15:33:24.689Z,5.77
2018-08-09T15:35:52.966Z,5.50
2018-08-09T15:38:21.326Z,5.97
2018-08-09T15:40:49.469Z,6.90
2018-08-09T15:43:17.792Z,6.43
2018-08-09T15:45:46.001Z,6.50
2018-08-09T15:48:14.329Z,5.87
2018-08-09T15:50:42.647Z,6.10
2018-08-09T15:53:10.880Z,5.13
2018-08-09T15:55:39.120Z,5.97
2018-08-09T15:58:07.418Z,5.80
2018-08-09T16:00:35.622Z,6.53
2018-08-09T16:03:04.134Z,5.83
2018-08-09T16:05:32.387Z,5.80
2018-08-09T16:08:00.698Z,4.90
2018-08-09T16:10:28.943Z,4.87
2018-08-09T16:12:57.374Z,5.27
2018-08-09T16:15:25.596Z,5.10
2018-08-09T16:17:53.851Z,4.30
2018-08-09T16:20:22.104Z,4.70
2018-08-09T16:22:50.333Z,5.00
2018-08-09T16:25:19.280Z,5.10
2018-08-09T16:27:48.249Z,6.60
2018-08-09T16:30:19.079Z,6.97
2018-08-09T16:32:47.305Z,5.40
2018-08-09T16:35:15.630Z,5.07
2018-08-09T16:37:44.559Z,5.00
2018-08-09T16:40:14.685Z,5.57
2018-08-09T16:42:44.204Z,5.23
2018-08-09T16:45:13.993Z,5.40
2018-08-09T16:47:42.947Z,5.40
2018-08-09T16:50:13.270Z,5.00
2018-08-09T16:52:41.542Z,20.50
2018-08-09T16:55:11.555Z,5.10
2018-08-09T16:57:40.410Z,5.67
2018-08-09T17:00:10.751Z,11.80
2018-08-09T17:02:39.723Z,6.07
2018-08-09T17:05:10.831Z,11.27
2018-08-09T17:07:39.148Z,5.20
2018-08-09T17:10:08.363Z,7.40
2018-08-09T17:12:36.753Z,4.47
2018-08-09T17:15:07.514Z,4.30
2018-08-09T17:17:35.752Z,5.30
2018-08-09T17:20:08.309Z,4.10
2018-08-09T17:22:36.631Z,3.93
2018-08-09T17:25:05.351Z,4.90
2018-08-09T17:27:33.607Z,4.23
2018-08-09T17:30:01.976Z,4.37
2018-08-09T17:32:30.287Z,3.97
2018-08-09T17:34:58.726Z,4.70
2018-08-09T17:37:27.016Z,3.33
2018-08-09T17:39:56.010Z,3.40
2018-08-09T17:42:24.286Z,4.00
2018-08-09T17:44:52.599Z,4.00
2018-08-09T17:47:20.861Z,3.87
2018-08-09T17:49:49.807Z,6.70
2018-08-09T17:52:18.178Z,4.87
2018-08-09T17:54:46.392Z,5.83
2018-08-09T17:57:14.820Z,4.37
2018-08-09T17:59:43.101Z,3.50
2018-08-09T18:02:11.347Z,4.10
2018-08-09T18:04:39.692Z,3.97
2018-08-09T18:07:07.978Z,4.13
2018-08-09T18:09:36.173Z,4.27
2018-08-09T18:12:04.490Z,5.40
2018-08-09T18:14:32.907Z,3.90
2018-08-09T18:17:01.107Z,3.63
2018-08-09T18:19:29.349Z,4.37
2018-08-09T18:21:57.757Z,3.60
2018-08-09T18:24:28.990Z,3.50
2018-08-09T18:26:57.299Z,2.97
2018-08-09T18:29:25.598Z,3.00
2018-08-09T18:31:53.802Z,3.20
2018-08-09T18:34:22.122Z,3.60
2018-08-09T18:36:50.384Z,3.50
2018-08-09T18:39:18.701Z,3.50
2018-08-09T18:41:46.951Z,5.40
2018-08-09T18:44:15.207Z,3.57
2018-08-09T18:46:43.381Z,3.73
2018-08-09T18:49:11.563Z,3.30
2018-08-09T18:51:40.019Z,3.20
2018-08-09T18:54:08.665Z,3.77
2018-08-09T18:56:36.881Z,4.17
2018-08-09T18:59:05.077Z,3.73
2018-08-09T19:01:33.287Z,4.13
2018-08-09T19:04:01.535Z,3.53
2018-08-09T19:06:29.840Z,4.30
2018-08-09T19:08:59.543Z,3.77
2018-08-09T19:11:27.761Z,3.13
2018-08-09T19:13:56.018Z,3.50
2018-08-09T19:16:24.274Z,2.67
2018-08-09T19:18:59.190Z,3.20
2018-08-09T19:21:27.627Z,3.10
2018-08-09T19:23:55.825Z,2.87
2018-08-09T19:26:24.974Z,9.17
2018-08-09T19:28:53.312Z,4.80
2018-08-09T19:31:21.568Z,3.43
2018-08-09T19:33:49.914Z,3.70
2018-08-09T19:36:18.243Z,2.67
2018-08-09T19:38:46.600Z,2.80
2018-08-09T19:41:14.833Z,3.40
2018-08-09T19:43:43.371Z,3.07
2018-08-09T19:46:11.574Z,2.93
2018-08-09T19:48:39.808Z,3.07
2018-08-09T19:51:08.094Z,3.17
2018-08-09T19:53:36.311Z,3.13
2018-08-09T19:56:04.583Z,3.13
2018-08-09T19:58:32.799Z,2.63
2018-08-09T20:01:01.006Z,3.90
2018-08-09T20:03:29.257Z,3.07
2018-08-09T20:05:57.613Z,3.20
2018-08-09T20:08:25.778Z,3.60
2018-08-09T20:10:53.974Z,3.13
2018-08-09T20:13:22.226Z,3.67
2018-08-09T20:15:50.546Z,3.57
2018-08-09T20:18:18.791Z,3.10
2018-08-09T20:20:48.340Z,4.73
2018-08-09T20:23:16.699Z,3.10
2018-08-09T20:25:44.920Z,3.10
2018-08-09T20:28:13.151Z,3.83
2018-08-09T20:30:41.399Z,3.13
2018-08-09T20:33:09.662Z,3.43
2018-08-09T20:35:37.893Z,3.57
2018-08-09T20:38:06.271Z,3.70
2018-08-09T20:40:34.604Z,3.50
2018-08-09T20:43:02.842Z,3.30
2018-08-09T20:45:31.171Z,3.10
2018-08-09T20:47:59.480Z,3.70
2018-08-09T20:50:28.979Z,3.63
2018-08-09T20:52:57.314Z,4.50
2018-08-09T20:55:25.566Z,3.70
2018-08-09T20:57:54.592Z,3.10
2018-08-09T21:00:29.518Z,3.67
2018-08-09T21:02:58.902Z,2.87
2018-08-09T21:05:28.609Z,4.00
2018-08-09T21:07:57.060Z,4.07
2018-08-09T21:10:25.739Z,3.43
2018-08-09T21:12:53.969Z,3.30
2018-08-09T21:15:22.585Z,4.10
2018-08-09T21:17:50.852Z,3.87
2018-08-09T21:20:19.183Z,3.60
2018-08-09T21:22:48.322Z,3.90
2018-08-09T21:25:16.682Z,3.47
2018-08-09T21:27:45.456Z,2.93
2018-08-09T21:30:15.917Z,3.10
2018-08-09T21:32:44.521Z,3.73
2018-08-09T21:35:12.767Z,3.90
2018-08-09T21:37:41.729Z,3.50
2018-08-09T21:40:10.972Z,4.40
2018-08-09T21:42:39.294Z,3.67
2018-08-09T21:45:11.389Z,3.87
2018-08-09T21:47:39.648Z,4.20
2018-08-09T21:50:10.799Z,4.30
2018-08-09T21:52:39.173Z,3.43
2018-08-09T21:55:07.659Z,3.47
2018-08-09T21:57:36.090Z,3.93
2018-08-09T22:00:05.962Z,4.07
2018-08-09T22:02:34.209Z,4.50
2018-08-09T22:05:07.806Z,4.00
2018-08-09T22:07:41.527Z,4.90
2018-08-09T22:10:14.960Z,5.33
2018-08-09T22:12:48.534Z,4.00
2018-08-09T22:15:22.066Z,3.90
2018-08-09T22:17:55.586Z,3.40
2018-08-09T22:20:29.477Z,4.47
2018-08-09T22:22:57.747Z,3.90
2018-08-09T22:25:26.012Z,3.80
2018-08-09T22:27:54.307Z,4.07
2018-08-09T22:30:22.866Z,4.60
2018-08-09T22:32:51.110Z,3.50
2018-08-09T22:35:19.687Z,3.67
2018-08-09T22:37:47.918Z,4.70
2018-08-09T22:40:16.098Z,4.50
2018-08-09T22:42:44.318Z,4.50
2018-08-09T22:45:12.543Z,4.87
2018-08-09T22:47:40.758Z,5.50
2018-08-09T22:50:09.035Z,8.70
2018-08-09T22:52:37.259Z,5.57
2018-08-09T22:55:05.534Z,5.77
2018-08-09T22:57:33.779Z,4.90
2018-08-09T23:00:02.029Z,5.17
2018-08-09T23:02:30.260Z,4.47
2018-08-09T23:04:58.507Z,4.70
2018-08-09T23:07:26.767Z,5.00
2018-08-09T23:09:55.032Z,5.50
2018-08-09T23:12:23.314Z,5.10
2018-08-09T23:14:51.547Z,5.30
2018-08-09T23:17:19.763Z,4.77
2018-08-09T23:19:48.010Z,4.60
2018-08-09T23:22:19.667Z,4.30
2018-08-09T23:24:47.943Z,4.93
2018-08-09T23:27:16.188Z,19.87
2018-08-09T23:29:44.567Z,8.07
2018-08-09T23:32:12.815Z,6.70
2018-08-09T23:34:41.070Z,5.40
2018-08-09T23:37:09.298Z,4.70
2018-08-09T23:39:37.572Z,4.50
2018-08-09T23:42:05.895Z,5.07
2018-08-09T23:44:34.129Z,5.30
2018-08-09T23:47:02.396Z,4.77
2018-08-09T23:49:30.647Z,4.57
2018-08-09T23:51:58.918Z,4.83
2018-08-09T23:54:27.254Z,4.63
2018-08-09T23:56:55.514Z,4.60
2018-08-09T23:59:23.727Z,4.00
